createdAt,value
2018-06-02T00:01:38.597Z,42.13
2018-06-02T00:04:06.139Z,38.27
2018-06-02T00:06:33.698Z,36.40
2018-06-02T00:09:01.232Z,38.43
2018-06-02T00:11:32.089Z,37.20
2018-06-02T00:13:59.608Z,39.07
2018-06-02T00:16:27.164Z,37.80
2018-06-02T00:18:54.693Z,38.00
2018-06-02T00:21:22.221Z,37.10
2018-06-02T00:23:49.781Z,38.87
2018-06-02T00:26:17.308Z,38.70
2018-06-02T00:28:44.863Z,35.63
2018-06-02T00:31:12.402Z,38.57
2018-06-02T00:33:39.951Z,34.83
2018-06-02T00:36:07.480Z,36.03
2018-06-02T00:38:35.045Z,37.13
2018-06-02T00:41:02.572Z,39.27
2018-06-02T00:43:30.141Z,38.07
2018-06-02T00:45:57.668Z,37.17
2018-06-02T00:48:25.229Z,35.20
2018-06-02T00:50:52.761Z,36.93
2018-06-02T00:53:20.311Z,35.60
2018-06-02T00:55:47.842Z,35.90
2018-06-02T00:58:16.168Z,38.53
2018-06-02T01:00:43.701Z,35.23
2018-06-02T01:03:11.251Z,40.07
2018-06-02T01:05:39.545Z,37.67
2018-06-02T01:08:07.128Z,37.90
2018-06-02T01:10:34.651Z,35.80
2018-06-02T01:13:02.975Z,39.10
2018-06-02T01:15:30.509Z,38.07
2018-06-02T01:17:58.060Z,39.17
2018-06-02T01:20:25.589Z,41.90
2018-06-02T01:22:53.157Z,42.83
2018-06-02T01:25:21.456Z,42.03
2018-06-02T01:27:49.021Z,43.43
2018-06-02T01:30:16.547Z,44.03
2018-06-02T01:32:44.102Z,46.40
2018-06-02T01:35:11.628Z,43.90
2018-06-02T01:37:39.188Z,46.90
2018-06-02T01:40:06.721Z,48.13
2018-06-02T01:42:34.252Z,48.30
2018-06-02T01:45:01.814Z,46.87
2018-06-02T01:47:30.113Z,48.77
2018-06-02T01:49:57.675Z,51.27
2018-06-02T01:52:25.200Z,51.27
2018-06-02T01:54:52.757Z,49.63
2018-06-02T01:57:20.284Z,48.63
2018-06-02T01:59:47.844Z,46.47
2018-06-02T02:02:15.372Z,48.60
2018-06-02T02:04:42.936Z,48.17
2018-06-02T02:07:10.468Z,50.47
2018-06-02T02:09:38.811Z,49.10
2018-06-02T02:12:06.340Z,51.10
2018-06-02T02:14:33.904Z,52.00
2018-06-02T02:17:01.433Z,52.53
2018-06-02T02:19:29.776Z,54.20
2018-06-02T02:21:57.384Z,54.53
2018-06-02T02:24:25.706Z,52.43
2018-06-02T02:26:53.233Z,53.70
2018-06-02T02:29:20.797Z,55.23
2018-06-02T02:31:48.321Z,56.97
2018-06-02T02:34:15.887Z,52.23
2018-06-02T02:36:43.418Z,57.73
2018-06-02T02:39:10.975Z,55.40
2018-06-02T02:41:38.523Z,59.57
2018-06-02T02:44:06.094Z,57.93
2018-06-02T02:46:33.631Z,59.13
2018-06-02T02:49:01.204Z,53.27
2018-06-02T02:51:28.741Z,58.67
2018-06-02T02:53:56.308Z,57.83
2018-06-02T02:56:23.836Z,60.80
2018-06-02T02:58:52.155Z,59.50
2018-06-02T03:01:19.688Z,58.20
2018-06-02T03:03:48.013Z,60.60
2018-06-02T03:06:15.539Z,64.50
2018-06-02T03:08:43.112Z,64.33
2018-06-02T03:11:10.657Z,64.40
2018-06-02T03:13:38.185Z,65.53
2018-06-02T03:16:06.516Z,65.90
2018-06-02T03:18:34.049Z,68.33
2018-06-02T03:21:01.613Z,69.73
2018-06-02T03:23:29.135Z,68.90
2018-06-02T03:25:56.697Z,73.70
2018-06-02T03:28:24.225Z,70.43
2018-06-02T03:30:51.783Z,74.57
2018-06-02T03:33:19.309Z,69.20
2018-06-02T03:35:46.888Z,73.17
2018-06-02T03:38:14.426Z,76.53
2018-06-02T03:40:42.759Z,75.53
2018-06-02T03:43:10.293Z,68.13
2018-06-02T03:45:37.849Z,67.40
2018-06-02T03:48:06.151Z,67.10
2018-06-02T03:50:33.715Z,68.63
2018-06-02T03:53:01.244Z,80.43
2018-06-02T03:55:28.799Z,77.67
2018-06-02T03:57:56.327Z,76.83
2018-06-02T04:00:24.658Z,76.17
2018-06-02T04:02:52.190Z,75.37
2018-06-02T04:05:19.749Z,78.00
2018-06-02T04:07:47.283Z,76.93
2018-06-02T04:10:14.845Z,81.57
2018-06-02T04:12:43.152Z,78.63
2018-06-02T04:15:10.730Z,75.50
2018-06-02T04:17:38.252Z,69.77
2018-06-02T04:20:05.812Z,73.13
2018-06-02T04:22:34.100Z,75.83
2018-06-02T04:25:01.666Z,68.37
2018-06-02T04:27:29.196Z,72.37
2018-06-02T04:29:56.812Z,72.53
2018-06-02T04:32:24.336Z,79.80
2018-06-02T04:34:52.660Z,83.37
2018-06-02T04:37:20.192Z,77.77
2018-06-02T04:39:47.748Z,76.07
2018-06-02T04:42:15.278Z,73.67
2018-06-02T04:44:42.866Z,78.80
2018-06-02T04:47:11.180Z,78.60
2018-06-02T04:49:38.732Z,68.13
2018-06-02T04:52:06.292Z,68.67
2018-06-02T04:54:33.842Z,68.30
2018-06-02T04:57:01.405Z,71.93
2018-06-02T04:59:28.935Z,73.37
2018-06-02T05:01:57.256Z,70.13
2018-06-02T05:04:24.800Z,64.23
2018-06-02T05:06:52.361Z,62.40
2018-06-02T05:09:20.656Z,72.63
2018-06-02T05:11:48.212Z,68.43
2018-06-02T05:14:15.745Z,70.70
2018-06-02T05:16:43.304Z,68.03
2018-06-02T05:19:10.853Z,79.40
2018-06-02T05:21:39.176Z,69.50
2018-06-02T05:24:06.740Z,74.30
2018-06-02T05:26:34.322Z,69.07
2018-06-02T05:29:01.853Z,67.17
2018-06-02T05:31:29.413Z,66.40
2018-06-02T05:33:56.960Z,64.93
2018-06-02T05:36:24.512Z,65.63
2018-06-02T05:38:52.040Z,62.10
2018-06-02T05:41:20.367Z,59.20
2018-06-02T05:43:47.892Z,55.67
2018-06-02T05:46:16.223Z,57.33
2018-06-02T05:48:43.748Z,57.67
2018-06-02T05:51:11.305Z,55.67
2018-06-02T05:53:38.837Z,61.43
2018-06-02T05:56:07.166Z,56.23
2018-06-02T05:58:34.700Z,53.93
2018-06-02T06:01:02.261Z,50.23
2018-06-02T06:03:29.789Z,52.57
2018-06-02T06:05:57.347Z,46.70
2018-06-02T06:08:24.876Z,46.30
2018-06-02T06:10:53.057Z,46.90
2018-06-02T06:13:20.589Z,43.67
2018-06-02T06:15:48.156Z,49.10
2018-06-02T06:18:16.645Z,44.87
2018-06-02T06:20:44.267Z,47.67
2018-06-02T06:23:12.592Z,47.57
2018-06-02T06:25:40.112Z,46.50
2018-06-02T06:28:07.690Z,46.57
2018-06-02T06:30:35.220Z,45.37
2018-06-02T06:33:03.542Z,44.07
2018-06-02T06:35:31.067Z,42.77
2018-06-02T06:37:58.629Z,44.67
2018-06-02T06:40:26.159Z,42.03
2018-06-02T06:42:53.744Z,46.37
2018-06-02T06:45:22.033Z,43.23
2018-06-02T06:47:49.621Z,42.37
2018-06-02T06:50:17.210Z,39.50
2018-06-02T06:52:44.773Z,40.93
2018-06-02T06:55:12.305Z,42.30
2018-06-02T06:57:39.962Z,39.83
2018-06-02T07:00:07.463Z,38.17
2018-06-02T07:02:35.024Z,37.97
2018-06-02T07:05:02.562Z,42.10
2018-06-02T07:07:30.120Z,39.13
2018-06-02T07:09:57.656Z,40.83
2018-06-02T07:12:25.225Z,44.50
2018-06-02T07:14:52.756Z,45.67
2018-06-02T07:17:20.316Z,43.00
2018-06-02T07:19:47.914Z,43.40
2018-06-02T07:22:15.482Z,43.63
2018-06-02T07:24:43.015Z,50.70
2018-06-02T07:27:10.580Z,49.60
2018-06-02T07:29:38.106Z,47.50
2018-06-02T07:32:06.474Z,47.57
2018-06-02T07:34:34.769Z,51.17
2018-06-02T07:37:04.271Z,48.80
2018-06-02T07:39:32.721Z,54.90
2018-06-02T07:42:00.906Z,57.17
2018-06-02T07:44:28.898Z,49.63
2018-06-02T07:46:57.486Z,57.20
2018-06-02T07:49:25.769Z,54.57
2018-06-02T07:51:53.771Z,49.67
2018-06-02T07:54:22.006Z,54.57
2018-06-02T07:56:51.178Z,54.87
2018-06-02T07:59:18.805Z,51.07
2018-06-02T08:01:47.142Z,53.33
2018-06-02T08:04:15.684Z,56.23
2018-06-02T08:06:43.861Z,52.20
2018-06-02T08:09:12.473Z,51.57
2018-06-02T08:11:40.013Z,52.80
2018-06-02T08:14:07.604Z,49.73
2018-06-02T08:16:35.856Z,48.30
2018-06-02T08:19:04.385Z,48.20
2018-06-02T08:21:32.705Z,47.37
2018-06-02T08:24:00.305Z,49.20
2018-06-02T08:26:27.884Z,43.97
2018-06-02T08:28:55.471Z,43.20
2018-06-02T08:31:23.014Z,40.73
2018-06-02T08:33:51.493Z,45.73
2018-06-02T08:36:19.068Z,41.03
2018-06-02T08:38:47.761Z,42.83
2018-06-02T08:41:15.301Z,45.70
2018-06-02T08:43:42.868Z,44.47
2018-06-02T08:46:10.405Z,41.13
2018-06-02T08:48:38.734Z,40.47
2018-06-02T08:51:06.288Z,46.27
2018-06-02T08:53:33.848Z,41.87
2018-06-02T08:56:01.377Z,44.93
2018-06-02T08:58:28.940Z,38.33
2018-06-02T09:00:56.476Z,34.57
2018-06-02T09:03:24.817Z,38.07
2018-06-02T09:05:52.421Z,37.03
2018-06-02T09:08:20.752Z,39.23
2018-06-02T09:10:48.302Z,35.50
2018-06-02T09:13:15.926Z,37.50
2018-06-02T09:15:44.254Z,37.33
2018-06-02T09:18:11.823Z,35.13
2018-06-02T09:20:39.371Z,32.27
2018-06-02T09:23:06.954Z,38.80
2018-06-02T09:25:34.506Z,34.20
2018-06-02T09:28:02.075Z,35.77
2018-06-02T09:30:29.650Z,34.70
2018-06-02T09:32:57.193Z,36.80
2018-06-02T09:35:24.763Z,33.70
2018-06-02T09:37:52.305Z,33.57
2018-06-02T09:40:19.892Z,35.20
2018-06-02T09:42:49.580Z,35.03
2018-06-02T09:45:19.086Z,34.80
2018-06-02T09:47:46.673Z,36.97
2018-06-02T09:50:14.321Z,34.67
2018-06-02T09:52:41.853Z,33.03
2018-06-02T09:55:09.420Z,33.30
2018-06-02T09:57:36.961Z,31.57
2018-06-02T10:00:04.529Z,31.97
2018-06-02T10:02:32.061Z,27.67
2018-06-02T10:04:59.631Z,29.57
2018-06-02T10:07:27.166Z,29.47
2018-06-02T10:09:54.735Z,27.63
2018-06-02T10:12:23.039Z,34.37
2018-06-02T10:14:50.609Z,29.63
2018-06-02T10:17:18.160Z,30.33
2018-06-02T10:19:45.744Z,33.43
2018-06-02T10:22:13.289Z,31.40
2018-06-02T10:24:41.621Z,35.20
2018-06-02T10:27:09.930Z,32.23
2018-06-02T10:29:37.510Z,32.00
2018-06-02T10:32:05.053Z,32.97
2018-06-02T10:34:32.621Z,31.53
2018-06-02T10:37:00.162Z,30.37
2018-06-02T10:39:27.746Z,29.27
2018-06-02T10:41:55.290Z,31.17
2018-06-02T10:44:22.865Z,32.17
2018-06-02T10:46:50.409Z,34.43
2018-06-02T10:49:17.977Z,30.40
2018-06-02T10:51:46.291Z,32.10
2018-06-02T10:54:13.867Z,29.80
2018-06-02T10:56:41.402Z,31.27
2018-06-02T10:59:08.991Z,28.30
2018-06-02T11:01:36.526Z,27.30
2018-06-02T11:04:04.065Z,30.60
2018-06-02T11:06:31.637Z,28.27
2018-06-02T11:08:59.200Z,29.13
2018-06-02T11:11:27.766Z,24.30
2018-06-02T11:13:55.308Z,24.67
2018-06-02T11:16:22.887Z,20.47
2018-06-02T11:18:50.429Z,21.70
2018-06-02T11:21:18.009Z,18.73
2018-06-02T11:23:46.436Z,18.13
2018-06-02T11:26:15.045Z,19.43
2018-06-02T11:28:43.740Z,17.53
2018-06-02T11:31:11.838Z,17.67
2018-06-02T11:33:40.834Z,15.17
2018-06-02T11:36:08.402Z,16.37
2018-06-02T11:38:35.933Z,13.27
2018-06-02T11:41:03.498Z,14.30
2018-06-02T11:43:31.052Z,10.73
2018-06-02T11:45:58.621Z,12.07
2018-06-02T11:48:26.155Z,14.83
2018-06-02T11:50:54.496Z,11.63
2018-06-02T11:53:22.037Z,13.63
2018-06-02T11:55:49.622Z,13.77
2018-06-02T11:58:17.186Z,13.47
2018-06-02T12:00:44.766Z,15.27
2018-06-02T12:03:13.065Z,13.83
2018-06-02T12:05:40.638Z,14.90
2018-06-02T12:08:08.196Z,15.03
2018-06-02T12:10:35.784Z,14.07
2018-06-02T12:13:03.338Z,13.03
2018-06-02T12:15:30.918Z,13.13
2018-06-02T12:17:58.468Z,11.70
2018-06-02T12:20:26.036Z,12.83
2018-06-02T12:22:53.577Z,12.50
2018-06-02T12:25:21.151Z,12.43
2018-06-02T12:27:48.695Z,14.10
2018-06-02T12:30:16.281Z,12.47
2018-06-02T12:32:43.885Z,12.10
2018-06-02T12:35:12.105Z,9.97
2018-06-02T12:37:39.667Z,9.23
2018-06-02T12:40:08.116Z,8.03
2018-06-02T12:42:36.417Z,9.47
2018-06-02T12:45:04.857Z,9.00
2018-06-02T12:47:32.438Z,8.00
2018-06-02T12:50:01.556Z,7.47
2018-06-02T12:52:29.970Z,6.53
2018-06-02T12:54:58.288Z,7.33
2018-06-02T12:57:27.181Z,7.63
2018-06-02T12:59:55.289Z,7.03
2018-06-02T13:02:23.101Z,7.73
2018-06-02T13:04:51.405Z,9.87
2018-06-02T13:07:19.985Z,7.57
2018-06-02T13:09:48.098Z,9.10
2018-06-02T13:12:15.669Z,7.80
2018-06-02T13:14:43.969Z,8.43
2018-06-02T13:17:13.332Z,9.13
2018-06-02T13:19:41.612Z,8.73
2018-06-02T13:22:10.606Z,10.93
2018-06-02T13:24:38.161Z,8.67
2018-06-02T13:27:05.721Z,8.80
2018-06-02T13:29:34.413Z,9.30
2018-06-02T13:32:03.091Z,9.87
2018-06-02T13:34:31.361Z,8.90
2018-06-02T13:36:58.935Z,9.37
2018-06-02T13:39:26.484Z,11.03
2018-06-02T13:41:54.051Z,10.53
2018-06-02T13:44:21.599Z,14.40
2018-06-02T13:46:49.168Z,12.57
2018-06-02T13:49:16.697Z,11.23
2018-06-02T13:51:44.264Z,11.27
2018-06-02T13:54:11.815Z,11.77
2018-06-02T13:56:39.402Z,10.83
2018-06-02T13:59:06.948Z,11.23
2018-06-02T14:01:34.514Z,10.70
2018-06-02T14:04:02.050Z,14.40
2018-06-02T14:06:30.389Z,13.17
2018-06-02T14:08:57.935Z,13.43
2018-06-02T14:11:25.501Z,13.47
2018-06-02T14:13:53.810Z,14.50
2018-06-02T14:16:21.388Z,13.83
2018-06-02T14:18:50.658Z,15.40
2018-06-02T14:21:18.296Z,16.73
2018-06-02T14:23:45.876Z,18.20
2018-06-02T14:26:13.418Z,16.73
2018-06-02T14:28:41.008Z,17.43
2018-06-02T14:31:08.778Z,17.10
2018-06-02T14:33:36.350Z,16.77
2018-06-02T14:36:03.901Z,15.20
2018-06-02T14:38:31.469Z,17.23
2018-06-02T14:40:59.785Z,19.93
2018-06-02T14:43:27.366Z,18.17
2018-06-02T14:45:54.904Z,17.47
2018-06-02T14:48:22.461Z,18.93
2018-06-02T14:50:50.024Z,17.83
2018-06-02T14:53:18.034Z,18.47
2018-06-02T14:55:46.676Z,17.77
2018-06-02T14:58:14.347Z,19.20
2018-06-02T15:00:41.898Z,18.93
2018-06-02T15:03:09.479Z,15.83
2018-06-02T15:05:37.028Z,19.27
2018-06-02T15:08:04.605Z,19.73
2018-06-02T15:10:32.160Z,18.27
2018-06-02T15:13:00.524Z,21.00
2018-06-02T15:15:28.069Z,18.40
2018-06-02T15:17:55.654Z,17.33
2018-06-02T15:20:23.960Z,18.87
2018-06-02T15:22:51.540Z,17.90
2018-06-02T15:25:19.089Z,23.60
2018-06-02T15:27:46.661Z,19.03
2018-06-02T15:30:14.194Z,17.30
2018-06-02T15:32:41.765Z,19.13
2018-06-02T15:35:09.301Z,16.87
2018-06-02T15:37:36.873Z,19.40
2018-06-02T15:40:04.420Z,20.53
2018-06-02T15:42:31.988Z,20.23
2018-06-02T15:44:59.527Z,20.67
2018-06-02T15:47:27.112Z,20.60
2018-06-02T15:49:54.645Z,19.60
2018-06-02T15:52:22.241Z,22.30
2018-06-02T15:54:49.833Z,19.47
2018-06-02T15:57:17.384Z,21.90
2018-06-02T15:59:45.038Z,21.97
2018-06-02T16:02:12.557Z,20.00
2018-06-02T16:04:40.133Z,21.60
2018-06-02T16:07:07.669Z,48.30
2018-06-02T16:09:35.240Z,26.30
2018-06-02T16:12:02.792Z,22.27
2018-06-02T16:14:30.369Z,21.67
2018-06-02T16:16:57.931Z,22.23
2018-06-02T16:19:25.499Z,20.07
2018-06-02T16:21:53.042Z,20.23
2018-06-02T16:24:20.622Z,19.60
2018-06-02T16:26:48.160Z,21.40
2018-06-02T16:29:15.737Z,18.40
2018-06-02T16:31:44.951Z,22.63
2018-06-02T16:34:12.545Z,19.47
2018-06-02T16:36:40.970Z,22.37
2018-06-02T16:39:08.557Z,21.70
2018-06-02T16:41:36.215Z,23.70
2018-06-02T16:44:04.760Z,24.20
2018-06-02T16:46:33.107Z,22.73
2018-06-02T16:49:00.820Z,21.13
2018-06-02T16:51:28.409Z,22.13
2018-06-02T16:53:56.372Z,24.53
2018-06-02T16:56:24.788Z,26.20
2018-06-02T16:58:53.904Z,22.37
2018-06-02T17:01:22.373Z,21.63
2018-06-02T17:03:49.989Z,25.33
2018-06-02T17:06:17.938Z,22.60
2018-06-02T17:08:45.642Z,23.37
2018-06-02T17:11:13.185Z,22.90
2018-06-02T17:13:41.383Z,24.97
2018-06-02T17:16:09.842Z,21.80
2018-06-02T17:18:37.750Z,22.83
2018-06-02T17:21:05.362Z,26.27
2018-06-02T17:23:33.075Z,21.93
2018-06-02T17:26:02.155Z,23.10
2018-06-02T17:28:30.434Z,23.17
2018-06-02T17:30:58.271Z,21.67
2018-06-02T17:33:25.886Z,22.67
2018-06-02T17:35:54.248Z,22.20
2018-06-02T17:38:23.289Z,27.07
2018-06-02T17:40:51.100Z,23.43
2018-06-02T17:43:18.937Z,24.80
2018-06-02T17:45:46.581Z,26.37
2018-06-02T17:48:14.408Z,28.20
2018-06-02T17:50:42.841Z,22.00
2018-06-02T17:53:11.454Z,23.77
2018-06-02T17:55:39.305Z,23.37
2018-06-02T17:58:06.933Z,24.87
2018-06-02T18:00:34.889Z,24.93
2018-06-02T18:03:03.904Z,25.03
2018-06-02T18:05:32.300Z,26.17
2018-06-02T18:08:00.286Z,26.70
2018-06-02T18:10:27.930Z,26.27
2018-06-02T18:12:55.604Z,28.10
2018-06-02T18:15:23.180Z,25.35
2018-06-02T18:17:51.184Z,24.93
2018-06-02T18:20:18.847Z,30.83
2018-06-02T18:22:47.205Z,26.73
2018-06-02T18:25:15.313Z,26.57
2018-06-02T18:27:44.468Z,29.83
2018-06-02T18:30:12.783Z,27.53
2018-06-02T18:32:41.584Z,29.10
2018-06-02T18:35:09.260Z,29.63
2018-06-02T18:37:36.814Z,30.87
2018-06-02T18:40:04.571Z,29.27
2018-06-02T18:42:32.302Z,36.13
2018-06-02T18:45:00.700Z,33.00
2018-06-02T18:47:28.261Z,30.00
2018-06-02T18:49:56.590Z,28.40
2018-06-02T18:52:24.254Z,31.63
2018-06-02T18:54:51.999Z,30.17
2018-06-02T18:57:19.564Z,29.13
2018-06-02T18:59:47.290Z,32.30
2018-06-02T19:02:14.844Z,27.37
2018-06-02T19:04:42.401Z,29.50
2018-06-02T19:07:10.064Z,33.67
2018-06-02T19:09:37.664Z,34.37
2018-06-02T19:12:05.281Z,31.93
2018-06-02T19:14:32.858Z,33.83
2018-06-02T19:17:01.211Z,29.53
2018-06-02T19:19:29.093Z,34.47
2018-06-02T19:21:56.988Z,35.13
2018-06-02T19:24:25.461Z,33.80
2018-06-02T19:26:54.165Z,31.87
2018-06-02T19:29:22.694Z,28.80
2018-06-02T19:31:50.795Z,29.40
2018-06-02T19:34:18.825Z,32.53
2018-06-02T19:36:47.200Z,34.63
2018-06-02T19:39:14.741Z,33.83
2018-06-02T19:42:24.008Z,34.77
2018-06-02T19:44:52.465Z,30.97
2018-06-02T19:47:20.874Z,31.10
2018-06-02T19:49:49.302Z,33.10
2018-06-02T19:52:19.821Z,32.33
2018-06-02T19:54:47.895Z,37.10
2018-06-02T19:57:16.009Z,36.67
2018-06-02T19:59:44.387Z,38.30
2018-06-02T20:02:15.268Z,34.07
2018-06-02T20:04:43.765Z,33.17
2018-06-02T20:07:12.173Z,30.50
2018-06-02T20:09:40.526Z,33.67
2018-06-02T20:12:08.637Z,32.33
2018-06-02T20:14:37.013Z,31.60
2018-06-02T20:17:05.404Z,33.87
2018-06-02T20:19:33.764Z,31.23
2018-06-02T20:22:02.186Z,32.37
2018-06-02T20:24:30.558Z,32.40
2018-06-02T20:26:58.958Z,34.33
2018-06-02T20:29:27.314Z,30.93
2018-06-02T20:31:55.709Z,33.13
2018-06-02T20:34:24.082Z,34.53
2018-06-02T20:36:52.510Z,31.37
2018-06-02T20:39:20.861Z,33.60
2018-06-02T20:41:49.258Z,31.67
2018-06-02T20:44:17.356Z,30.70
2018-06-02T20:46:45.756Z,30.33
2018-06-02T20:49:14.113Z,30.37
2018-06-02T20:51:42.512Z,32.90
2018-06-02T20:54:10.865Z,28.23
2018-06-02T20:56:39.271Z,30.87
2018-06-02T20:59:07.649Z,31.67
2018-06-02T21:01:36.069Z,30.20
2018-06-02T21:04:04.501Z,30.70
2018-06-02T21:06:32.937Z,32.77
2018-06-02T21:09:01.313Z,29.93
2018-06-02T21:11:29.713Z,30.03
2018-06-02T21:13:57.807Z,29.90
2018-06-02T21:16:26.232Z,27.33
2018-06-02T21:18:54.609Z,31.37
2018-06-02T21:21:23.016Z,31.07
2018-06-02T21:23:51.388Z,35.47
2018-06-02T21:26:19.800Z,33.60
2018-06-02T21:28:48.170Z,34.33
2018-06-02T21:31:16.581Z,33.37
2018-06-02T21:33:44.972Z,33.90
2018-06-02T21:36:13.364Z,28.50
2018-06-02T21:38:41.766Z,30.57
2018-06-02T21:41:10.150Z,30.13
2018-06-02T21:43:38.540Z,30.23
2018-06-02T21:46:06.662Z,28.40
2018-06-02T21:48:35.065Z,29.87
2018-06-02T21:51:03.445Z,30.30
2018-06-02T21:53:31.907Z,28.73
2018-06-02T21:56:00.264Z,28.40
2018-06-02T21:58:29.064Z,32.77
2018-06-02T22:00:57.811Z,30.00
2018-06-02T22:03:26.196Z,29.90
2018-06-02T22:05:54.964Z,30.60
2018-06-02T22:08:23.742Z,33.97
2018-06-02T22:10:52.543Z,32.37
2018-06-02T22:13:21.087Z,29.53
2018-06-02T22:15:49.549Z,34.87
2018-06-02T22:18:18.256Z,29.00
2018-06-02T22:20:46.895Z,29.80
2018-06-02T22:23:15.465Z,33.37
2018-06-02T22:25:43.736Z,29.90
2018-06-02T22:28:12.540Z,32.53
2018-06-02T22:30:40.989Z,34.73
2018-06-02T22:33:09.518Z,30.43
2018-06-02T22:35:38.156Z,30.20
2018-06-02T22:38:06.651Z,30.57
2018-06-02T22:40:35.200Z,37.27
2018-06-02T22:43:03.757Z,32.40
2018-06-02T22:45:32.509Z,30.27
2018-06-02T22:48:01.096Z,32.40
2018-06-02T22:50:29.667Z,34.23
2018-06-02T22:52:58.412Z,30.07
2018-06-02T22:55:27.088Z,30.57
2018-06-02T22:57:55.615Z,31.83
2018-06-02T23:00:24.436Z,30.57
2018-06-02T23:02:53.096Z,33.50
2018-06-02T23:05:21.756Z,33.10
2018-06-02T23:07:50.480Z,33.93
2018-06-02T23:10:19.013Z,33.90
2018-06-02T23:12:47.724Z,37.83
2018-06-02T23:15:16.488Z,33.77
2018-06-02T23:17:45.052Z,34.10
2018-06-02T23:20:13.643Z,31.83
2018-06-02T23:22:42.407Z,36.63
2018-06-02T23:25:10.918Z,35.20
2018-06-02T23:27:39.516Z,37.53
2018-06-02T23:30:08.146Z,36.80
2018-06-02T23:32:36.716Z,37.03
2018-06-02T23:35:05.248Z,38.30
2018-06-02T23:37:33.439Z,38.27
2018-06-02T23:40:02.115Z,38.80
2018-06-02T23:42:30.707Z,38.00
2018-06-02T23:44:59.270Z,36.07
2018-06-02T23:47:27.774Z,38.53
2018-06-02T23:49:56.560Z,36.93
2018-06-02T23:52:24.905Z,37.13
2018-06-02T23:54:53.282Z,40.27
2018-06-02T23:57:21.632Z,41.07
2018-06-02T23:59:50.005Z,37.53
